Time;durP1;ratioP1;P1;durP2;ratioP2;P2;SDS_P1;SDS_P2;PMS_P1;PMS_P2;Temp;Humidity;BMP_temperature;BMP_pressure;BME280_temperature;BME280_humidity;BME280_pressure;Samples;Min_cycle;Max_cycle;Signal;HPM_P1;HPM_P2
2023/02/05 00:01:57;;;;;;;5.25;4.75;;;-2.10;99.90;;;;;;5043315;28;20041;-35
2023/02/05 00:04:24;;;;;;;4.60;4.22;;;-2.10;99.90;;;;;;5044227;28;20045;-35
2023/02/05 00:06:52;;;;;;;4.32;3.85;;;-2.10;99.90;;;;;;5046440;28;20052;-35
2023/02/05 00:09:19;;;;;;;6.15;5.53;;;-2.10;99.90;;;;;;5041585;28;20057;-35
2023/02/05 00:11:46;;;;;;;5.72;5.22;;;-2.20;99.90;;;;;;5039999;28;20044;-35
2023/02/05 00:14:14;;;;;;;6.63;5.30;;;-2.20;99.90;;;;;;5036163;28;20037;-34
2023/02/05 00:16:41;;;;;;;5.75;4.88;;;-2.20;99.90;;;;;;5024703;28;20045;-35
2023/02/05 00:19:09;;;;;;;9.05;5.90;;;-2.30;99.90;;;;;;5043406;28;20049;-35
2023/02/05 00:21:37;;;;;;;17.35;10.07;;;-2.30;99.90;;;;;;5039622;28;20052;-35
2023/02/05 00:24:05;;;;;;;6.93;5.72;;;-2.30;99.90;;;;;;5041504;28;20040;-35
2023/02/05 00:26:32;;;;;;;5.10;4.70;;;-2.30;99.90;;;;;;5041579;28;20068;-35
2023/02/05 00:29:00;;;;;;;10.93;7.40;;;-2.30;99.90;;;;;;5046821;28;20447;-35
2023/02/05 00:31:27;;;;;;;5.85;4.25;;;-2.40;99.90;;;;;;5041239;28;20046;-35
2023/02/05 00:33:56;;;;;;;5.45;4.85;;;-2.50;99.90;;;;;;5046169;28;20052;-35
2023/02/05 00:36:24;;;;;;;5.25;4.45;;;-2.50;99.90;;;;;;5039864;28;20044;-35
2023/02/05 00:38:52;;;;;;;5.40;4.65;;;-2.60;99.90;;;;;;5035729;28;20365;-35
2023/02/05 00:41:20;;;;;;;5.82;5.32;;;-2.60;99.90;;;;;;5027510;28;20052;-35
2023/02/05 00:43:48;;;;;;;6.82;5.68;;;-2.60;99.90;;;;;;5029760;28;20052;-35
2023/02/05 00:46:15;;;;;;;4.30;3.90;;;-2.50;99.90;;;;;;5048656;28;20055;-35
2023/02/05 00:48:43;;;;;;;4.78;4.40;;;-2.50;99.90;;;;;;5053960;28;20056;-35
2023/02/05 00:51:11;;;;;;;5.25;4.72;;;-2.50;99.90;;;;;;5049662;28;20049;-35
2023/02/05 00:53:39;;;;;;;4.88;4.05;;;-2.50;99.90;;;;;;5041960;28;20398;-35
2023/02/05 00:56:06;;;;;;;4.93;4.50;;;-2.50;99.90;;;;;;5049146;28;20053;-35
2023/02/05 00:58:34;;;;;;;3.90;3.65;;;-2.60;99.90;;;;;;5026593;28;20619;-35
2023/02/05 01:01:02;;;;;;;4.55;4.25;;;-2.60;99.90;;;;;;5048269;28;20046;-35
2023/02/05 01:03:32;;;;;;;5.85;5.35;;;-2.50;99.90;;;;;;5048922;28;20421;-37
2023/02/05 01:06:02;;;;;;;5.82;4.70;;;-2.50;99.90;;;;;;5047622;28;20048;-36
2023/02/05 01:08:29;;;;;;;4.97;4.57;;;-2.40;99.90;;;;;;5027615;28;20045;-37
2023/02/05 01:10:57;;;;;;;4.55;4.25;;;-2.50;99.90;;;;;;5049735;28;20524;-38
2023/02/05 01:13:25;;;;;;;4.20;3.85;;;-2.50;99.90;;;;;;5048773;28;20460;-38
2023/02/05 01:15:54;;;;;;;5.25;4.72;;;-2.60;99.90;;;;;;5031489;28;20572;-39
2023/02/05 01:18:21;;;;;;;5.15;4.68;;;-2.60;99.90;;;;;;5030064;28;20064;-38
2023/02/05 01:20:49;;;;;;;4.20;3.90;;;-2.60;99.90;;;;;;5047910;28;20170;-38
2023/02/05 01:23:16;;;;;;;4.57;4.13;;;-2.70;99.90;;;;;;5029081;28;20425;-38
2023/02/05 01:25:45;;;;;;;8.10;4.60;;;-2.60;99.90;;;;;;5045195;28;20375;-38
2023/02/05 01:28:14;;;;;;;3.88;3.58;;;-2.60;99.90;;;;;;5047347;28;20404;-38
2023/02/05 01:30:46;;;;;;;5.05;3.70;;;-2.60;99.90;;;;;;5046992;28;20112;-38
2023/02/05 01:33:14;;;;;;;3.90;3.42;;;-2.60;99.90;;;;;;5047454;28;20045;-38
2023/02/05 01:35:43;;;;;;;3.92;3.60;;;-2.50;99.90;;;;;;5049318;28;20075;-38
2023/02/05 01:38:12;;;;;;;4.20;3.80;;;-2.50;99.90;;;;;;5046194;28;20293;-38
2023/02/05 01:40:39;;;;;;;4.80;3.95;;;-2.40;99.90;;;;;;5046467;28;20048;-38
2023/02/05 01:43:13;;;;;;;4.13;3.83;;;-2.40;99.90;;;;;;5027779;28;20502;-38
2023/02/05 01:46:04;;;;;;;4.38;3.95;;;-2.40;99.90;;;;;;5028511;28;20049;-38
2023/02/05 01:48:36;;;;;;;5.32;4.85;;;-2.50;99.90;;;;;;5046114;28;20049;-38
2023/02/05 01:51:08;;;;;;;4.05;3.67;;;-2.50;99.90;;;;;;5028433;28;20068;-37
2023/02/05 01:53:37;;;;;;;5.68;4.65;;;-2.50;99.90;;;;;;5024335;28;20052;-38
2023/02/05 01:56:11;;;;;;;4.60;4.20;;;-2.50;99.90;;;;;;5025774;28;20064;-38
2023/02/05 01:58:44;;;;;;;5.07;3.63;;;-2.50;99.90;;;;;;4991199;28;20072;-37
2023/02/05 02:01:12;;;;;;;3.78;3.42;;;-2.60;99.90;;;;;;5026536;28;20041;-37
2023/02/05 02:03:40;;;;;;;10.63;6.10;;;-2.70;99.90;;;;;;5025513;28;20064;-37
2023/02/05 02:06:09;;;;;;;4.70;4.22;;;-2.70;99.90;;;;;;5010304;28;20509;-37
2023/02/05 02:08:37;;;;;;;5.03;4.63;;;-2.60;99.90;;;;;;5022053;28;20472;-37
2023/02/05 02:11:06;;;;;;;4.38;4.07;;;-2.60;99.90;;;;;;5031792;28;20045;-37
2023/02/05 02:13:35;;;;;;;3.22;2.90;;;-2.60;99.90;;;;;;5012890;28;20038;-37
2023/02/05 02:16:05;;;;;;;6.05;5.45;;;-2.70;99.90;;;;;;5025970;28;20053;-37
2023/02/05 02:18:35;;;;;;;4.40;3.88;;;-2.70;99.90;;;;;;5027500;28;20057;-37
2023/02/05 02:21:08;;;;;;;3.90;3.33;;;-2.70;99.90;;;;;;5027176;28;20054;-37
2023/02/05 02:24:07;;;;;;;3.00;2.83;;;-2.70;99.90;;;;;;5008769;28;20045;-37
2023/02/05 02:26:52;;;;;;;3.28;3.05;;;-2.80;99.90;;;;;;5009875;28;20052;-37
2023/02/05 02:29:55;;;;;;;4.63;3.42;;;-2.80;99.90;;;;;;5023932;28;20068;-37
2023/02/05 02:32:50;;;;;;;6.35;4.22;;;-2.80;99.90;;;;;;5012456;28;20057;-37
2023/02/05 02:35:39;;;;;;;4.55;3.08;;;-2.80;99.90;;;;;;5011215;28;20065;-37
2023/02/05 02:38:26;;;;;;;3.20;3.00;;;-2.80;99.90;;;;;;5027027;28;20477;-37
2023/02/05 02:40:58;;;;;;;3.90;3.60;;;-2.80;99.90;;;;;;5006260;28;20406;-37
2023/02/05 02:43:40;;;;;;;4.43;3.50;;;-2.80;99.90;;;;;;5030390;28;20123;-37
2023/02/05 02:46:34;;;;;;;5.43;4.97;;;-2.70;99.90;;;;;;5013999;28;20049;-37
2023/02/05 02:49:05;;;;;;;4.22;3.90;;;-2.70;99.90;;;;;;5030122;28;20279;-37
2023/02/05 02:51:36;;;;;;;3.97;3.70;;;-2.80;99.90;;;;;;5042280;28;20056;-37
2023/02/05 02:54:08;;;;;;;3.35;3.10;;;-2.90;99.90;;;;;;5050445;28;20238;-37
2023/02/05 02:56:39;;;;;;;3.58;3.28;;;-2.90;99.90;;;;;;5043226;28;20041;-37
2023/02/05 02:59:15;;;;;;;4.07;3.70;;;-2.90;99.90;;;;;;5034918;28;20048;-37
2023/02/05 03:01:49;;;;;;;2.70;2.50;;;-2.90;99.90;;;;;;5030829;28;20048;-37
2023/02/05 03:04:28;;;;;;;3.67;3.38;;;-2.90;99.90;;;;;;5031180;28;20050;-37
2023/02/05 03:07:04;;;;;;;2.70;2.60;;;-2.90;99.90;;;;;;5049170;28;20516;-37
2023/02/05 03:09:42;;;;;;;4.05;3.75;;;-3.00;99.90;;;;;;5047900;28;20040;-37
2023/02/05 03:12:10;;;;;;;3.58;3.30;;;-3.20;99.90;;;;;;5031171;28;20636;-36
2023/02/05 03:14:38;;;;;;;3.65;3.30;;;-3.20;99.90;;;;;;5033662;28;20076;-37
2023/02/05 03:17:06;;;;;;;4.20;3.80;;;-3.30;99.90;;;;;;5023497;28;20043;-36
2023/02/05 03:19:34;;;;;;;2.75;2.55;;;-3.20;99.90;;;;;;5032370;28;20052;-37
2023/02/05 03:22:03;;;;;;;2.83;2.67;;;-3.10;99.90;;;;;;5047045;28;20037;-37
2023/02/05 03:24:31;;;;;;;3.22;2.33;;;-3.20;99.90;;;;;;5050162;28;20357;-37
2023/02/05 03:26:59;;;;;;;2.13;1.75;;;-3.20;99.90;;;;;;5030453;28;20060;-37
2023/02/05 03:29:31;;;;;;;3.42;3.13;;;-3.20;99.90;;;;;;5033917;28;20044;-37
2023/02/05 03:32:22;;;;;;;2.50;2.40;;;-3.10;99.90;;;;;;5027938;28;20057;-36
2023/02/05 03:35:15;;;;;;;1.77;1.67;;;-3.00;99.90;;;;;;5042716;28;20192;-37
2023/02/05 03:37:53;;;;;;;3.00;2.90;;;-3.20;99.90;;;;;;5031920;28;20045;-36
2023/02/05 03:40:42;;;;;;;2.88;2.55;;;-3.40;99.90;;;;;;5031412;28;20049;-36
2023/02/05 03:43:44;;;;;;;1.70;1.70;;;-3.40;99.90;;;;;;5050494;28;20057;-36
2023/02/05 03:46:42;;;;;;;2.38;2.28;;;-3.20;99.90;;;;;;5031848;28;20053;-36
2023/02/05 03:49:21;;;;;;;1.80;1.70;;;-2.90;99.90;;;;;;5031647;28;20064;-37
2023/02/05 03:52:05;;;;;;;1.80;1.70;;;-2.70;99.90;;;;;;5044547;28;20048;-37
2023/02/05 03:54:50;;;;;;;2.83;2.65;;;-2.60;99.90;;;;;;5028442;28;20044;-37
2023/02/05 03:57:46;;;;;;;2.63;2.42;;;-2.60;99.90;;;;;;5029920;28;20055;-37
2023/02/05 04:00:14;;;;;;;2.15;2.05;;;-2.90;99.90;;;;;;5018565;28;20052;-37
2023/02/05 04:02:44;;;;;;;3.22;2.88;;;-3.10;99.90;;;;;;5045809;28;20441;-37
2023/02/05 04:05:19;;;;;;;2.00;1.90;;;-3.10;99.90;;;;;;5030277;28;20049;-37
2023/02/05 04:07:49;;;;;;;2.40;2.20;;;-3.10;99.90;;;;;;5031870;28;20045;-37
2023/02/05 04:10:19;;;;;;;2.47;2.28;;;-3.10;99.90;;;;;;5029165;28;20556;-36
2023/02/05 04:12:47;;;;;;;2.08;1.98;;;-3.10;99.90;;;;;;5031072;28;20040;-37
2023/02/05 04:15:16;;;;;;;2.58;2.47;;;-3.10;99.90;;;;;;5030080;28;20060;-37
2023/02/05 04:17:47;;;;;;;3.20;3.08;;;-3.10;99.90;;;;;;5029992;28;20049;-36
2023/02/05 04:20:15;;;;;;;2.30;2.20;;;-3.00;99.90;;;;;;5031325;28;20053;-37
2023/02/05 04:22:42;;;;;;;3.03;2.42;;;-3.00;99.90;;;;;;5031770;28;20049;-36
2023/02/05 04:25:10;;;;;;;3.03;2.92;;;-3.00;99.90;;;;;;5046597;28;20038;-37
2023/02/05 04:27:38;;;;;;;2.53;2.38;;;-3.00;99.90;;;;;;5032904;28;20056;-37
2023/02/05 04:30:06;;;;;;;1.85;1.85;;;-3.10;99.90;;;;;;5049558;28;20041;-37
2023/02/05 04:32:36;;;;;;;2.10;2.00;;;-3.20;99.90;;;;;;5046455;28;20071;-37
2023/02/05 04:35:05;;;;;;;5.22;2.40;;;-3.30;99.90;;;;;;5030802;28;20041;-36
2023/02/05 04:37:32;;;;;;;2.58;2.42;;;-3.30;99.90;;;;;;5048780;28;20041;-37
2023/02/05 04:40:00;;;;;;;2.05;1.95;;;-3.30;99.90;;;;;;5046885;28;20042;-37
2023/02/05 04:42:27;;;;;;;1.92;1.83;;;-3.30;99.90;;;;;;5043888;28;20547;-37
2023/02/05 04:44:55;;;;;;;2.60;2.50;;;-3.30;99.90;;;;;;5049271;28;20045;-37
2023/02/05 04:47:22;;;;;;;2.47;2.30;;;-3.40;99.90;;;;;;5046451;28;20053;-37
2023/02/05 04:49:50;;;;;;;2.00;1.90;;;-3.40;99.90;;;;;;5047053;28;20465;-37
2023/02/05 04:52:17;;;;;;;2.25;2.15;;;-3.40;99.90;;;;;;5043220;28;20079;-36
2023/02/05 04:54:45;;;;;;;2.58;2.33;;;-3.40;99.90;;;;;;5040377;28;20053;-36
2023/02/05 04:57:12;;;;;;;2.90;2.70;;;-3.40;99.90;;;;;;5048464;28;20875;-37
2023/02/05 04:59:40;;;;;;;3.08;2.05;;;-3.50;99.90;;;;;;5043701;28;20053;-37
2023/02/05 05:02:08;;;;;;;2.22;2.13;;;-3.50;99.90;;;;;;5045875;28;20488;-37
2023/02/05 05:04:36;;;;;;;2.75;2.55;;;-3.60;99.90;;;;;;5048370;28;20040;-36
2023/02/05 05:07:03;;;;;;;1.98;1.88;;;-3.60;99.90;;;;;;5048303;28;20041;-37
2023/02/05 05:09:31;;;;;;;2.13;2.03;;;-3.60;99.90;;;;;;5045488;28;20045;-37
2023/02/05 05:11:58;;;;;;;2.40;2.22;;;-3.60;99.90;;;;;;5043995;28;20049;-37
2023/02/05 05:14:27;;;;;;;2.38;2.28;;;-3.60;99.90;;;;;;5041449;28;20094;-38
2023/02/05 05:16:55;;;;;;;2.30;2.17;;;-3.60;99.90;;;;;;5049561;28;20076;-37
2023/02/05 05:19:22;;;;;;;10.55;4.38;;;-3.70;99.90;;;;;;5047805;28;20057;-37
2023/02/05 05:21:50;;;;;;;2.45;2.25;;;-3.70;99.90;;;;;;5047240;28;20068;-37
2023/02/05 05:24:17;;;;;;;2.45;2.00;;;-3.80;99.90;;;;;;5044626;28;20450;-37
2023/02/05 05:26:45;;;;;;;3.55;2.92;;;-3.80;99.90;;;;;;5046731;28;20524;-37
2023/02/05 05:29:13;;;;;;;1.98;1.88;;;-3.70;99.90;;;;;;5046507;28;20545;-37
2023/02/05 05:31:42;;;;;;;2.10;2.00;;;-3.70;99.90;;;;;;5049196;28;20154;-36
2023/02/05 05:34:10;;;;;;;2.28;2.17;;;-3.60;99.90;;;;;;5047185;28;20068;-37
2023/02/05 05:36:42;;;;;;;2.53;2.20;;;-3.60;99.90;;;;;;5046817;28;20045;-36
2023/02/05 05:44:42;;;;;;;2.35;2.00;;;-3.50;99.90;;;;;;5041127;28;20060;-37
2023/02/05 05:47:10;;;;;;;2.03;1.92;;;-3.40;99.90;;;;;;5047143;28;20049;-37
2023/02/05 05:49:37;;;;;;;3.08;2.88;;;-3.30;99.90;;;;;;5040825;28;20060;-37
2023/02/05 05:52:05;;;;;;;3.28;2.15;;;-3.30;99.90;;;;;;5046873;28;20060;-37
2023/02/05 05:54:32;;;;;;;2.00;1.90;;;-3.40;99.90;;;;;;5045589;28;20503;-37
2023/02/05 05:56:59;;;;;;;5.43;1.90;;;-3.40;99.90;;;;;;5047353;28;20045;-37
2023/02/05 05:59:27;;;;;;;2.00;1.90;;;-3.50;99.90;;;;;;5043996;28;20053;-37
2023/02/05 06:01:55;;;;;;;2.10;2.00;;;-3.50;99.90;;;;;;5044865;28;20041;-37
2023/02/05 06:04:22;;;;;;;2.55;2.35;;;-3.50;99.90;;;;;;5045401;28;20052;-37
2023/02/05 06:06:50;;;;;;;2.03;1.92;;;-3.40;99.90;;;;;;5046937;28;20496;-37
2023/02/05 06:09:20;;;;;;;1.90;1.80;;;-3.40;99.90;;;;;;5039583;28;20241;-37
2023/02/05 06:11:48;;;;;;;2.65;2.45;;;-3.40;99.90;;;;;;5049369;28;20052;-37
2023/02/05 06:14:15;;;;;;;3.25;2.95;;;-3.40;99.90;;;;;;5047318;28;20045;-39
2023/02/05 06:16:43;;;;;;;2.38;2.17;;;-3.40;99.90;;;;;;5048286;28;20049;-37
2023/02/05 06:19:10;;;;;;;2.40;2.20;;;-3.30;99.90;;;;;;5045328;28;20051;-37
2023/02/05 06:21:38;;;;;;;2.58;2.38;;;-3.20;99.90;;;;;;5047286;28;20041;-37
2023/02/05 06:24:05;;;;;;;2.40;2.15;;;-3.20;99.90;;;;;;5046331;28;20045;-38
2023/02/05 06:26:33;;;;;;;2.40;2.20;;;-3.20;99.90;;;;;;5049337;28;20069;-37
2023/02/05 06:29:02;;;;;;;2.63;2.42;;;-3.20;99.90;;;;;;5045626;28;20041;-37
2023/02/05 06:31:30;;;;;;;8.75;3.15;;;-3.10;99.90;;;;;;5047171;28;20044;-37
2023/02/05 06:34:00;;;;;;;3.20;2.97;;;-3.10;99.90;;;;;;5046948;28;20419;-38
2023/02/05 06:36:27;;;;;;;2.70;2.50;;;-3.00;99.90;;;;;;5048112;28;20082;-37
2023/02/05 06:38:55;;;;;;;2.17;2.08;;;-3.00;99.90;;;;;;5045729;28;20055;-37
2023/02/05 06:41:22;;;;;;;2.55;2.45;;;-3.00;99.90;;;;;;5043981;28;20041;-37
2023/02/05 06:43:50;;;;;;;3.55;3.25;;;-3.00;99.90;;;;;;5044923;28;20048;-37
2023/02/05 06:46:18;;;;;;;1.77;1.63;;;-3.00;99.90;;;;;;5046194;28;20536;-37
2023/02/05 06:48:45;;;;;;;4.53;2.92;;;-3.00;99.90;;;;;;5046030;28;20049;-37
2023/02/05 06:51:13;;;;;;;3.03;2.63;;;-3.00;99.90;;;;;;5046408;28;20060;-37
2023/02/05 06:53:40;;;;;;;2.38;2.17;;;-2.90;99.90;;;;;;5040067;28;20072;-37
2023/02/05 06:56:08;;;;;;;2.45;2.33;;;-2.90;99.90;;;;;;5045502;28;20064;-37
2023/02/05 06:58:35;;;;;;;2.80;2.55;;;-2.90;99.90;;;;;;5045445;28;20041;-37
2023/02/05 07:01:03;;;;;;;2.72;2.33;;;-2.90;99.90;;;;;;5047104;28;20056;-37
2023/02/05 07:03:30;;;;;;;3.47;3.00;;;-2.90;99.90;;;;;;5038565;28;20633;-37
2023/02/05 07:06:03;;;;;;;2.10;1.88;;;-3.00;99.90;;;;;;5043130;28;20437;-37
2023/02/05 07:08:31;;;;;;;2.75;2.55;;;-3.00;99.90;;;;;;5039291;28;20041;-37
2023/02/05 07:10:59;;;;;;;2.53;2.38;;;-3.00;99.90;;;;;;5032601;28;20041;-39
2023/02/05 07:13:28;;;;;;;2.90;2.70;;;-2.90;99.90;;;;;;5043223;28;20072;-37
2023/02/05 07:15:56;;;;;;;2.88;2.35;;;-2.80;99.90;;;;;;5047538;28;20052;-38
2023/02/05 07:18:23;;;;;;;3.55;3.25;;;-2.80;99.90;;;;;;5048938;28;20390;-37
2023/02/05 07:20:51;;;;;;;4.10;3.75;;;-2.80;99.90;;;;;;5049796;28;20037;-37
2023/02/05 07:23:18;;;;;;;3.00;2.80;;;-2.80;99.90;;;;;;5047860;28;20394;-37
2023/02/05 07:25:46;;;;;;;4.00;3.67;;;-2.70;99.90;;;;;;5046418;28;20590;-37
2023/02/05 07:28:13;;;;;;;5.57;3.95;;;-2.70;99.90;;;;;;5049746;28;20243;-37
2023/02/05 07:30:41;;;;;;;3.65;3.35;;;-2.60;99.90;;;;;;5048795;28;20472;-37
2023/02/05 07:33:08;;;;;;;5.70;4.07;;;-2.60;99.90;;;;;;5028459;28;20049;-37
2023/02/05 07:35:37;;;;;;;6.15;3.15;;;-2.60;99.90;;;;;;5048823;28;20053;-37
2023/02/05 07:38:04;;;;;;;4.15;3.85;;;-2.50;99.90;;;;;;5047046;28;20045;-37
2023/02/05 07:40:32;;;;;;;3.67;3.40;;;-2.40;99.90;;;;;;5048363;28;20049;-39
2023/02/05 07:43:00;;;;;;;3.20;3.00;;;-2.30;99.90;;;;;;5048647;28;20048;-38
2023/02/05 07:45:27;;;;;;;4.10;3.80;;;-2.10;99.90;;;;;;5045660;28;20413;-38
2023/02/05 07:47:54;;;;;;;5.57;5.07;;;-2.00;99.90;;;;;;5051278;28;20071;-38
2023/02/05 07:50:22;;;;;;;5.05;3.35;;;-1.90;99.90;;;;;;5048661;28;20413;-38
2023/02/05 07:52:53;;;;;;;5.07;3.78;;;-1.80;99.90;;;;;;5029180;28;20048;-38
2023/02/05 07:55:21;;;;;;;7.03;3.55;;;-1.70;99.90;;;;;;5039111;28;20040;-38
2023/02/05 07:57:48;;;;;;;3.95;3.50;;;-1.70;99.90;;;;;;5049215;28;20072;-38
2023/02/05 08:00:16;;;;;;;3.88;3.58;;;-1.70;99.90;;;;;;5045641;28;20429;-38
2023/02/05 08:02:44;;;;;;;4.25;3.75;;;-1.60;99.90;;;;;;5048659;28;20053;-38
2023/02/05 08:05:11;;;;;;;3.78;3.33;;;-1.60;99.90;;;;;;5046138;28;20138;-38
2023/02/05 08:07:39;;;;;;;5.10;3.15;;;-1.50;99.90;;;;;;5048471;28;20057;-38
2023/02/05 08:10:06;;;;;;;5.55;3.38;;;-1.40;99.90;;;;;;5046610;28;20265;-38
2023/02/05 08:12:34;;;;;;;5.50;4.97;;;-1.40;99.90;;;;;;5047850;28;20037;-38
2023/02/05 08:15:01;;;;;;;4.10;3.75;;;-1.40;99.90;;;;;;5043497;28;20064;-38
2023/02/05 08:17:29;;;;;;;9.25;5.03;;;-1.30;99.90;;;;;;5049966;28;20045;-38
2023/02/05 08:19:58;;;;;;;9.40;5.90;;;-1.20;99.90;;;;;;5044636;28;20053;-38
2023/02/05 08:22:26;;;;;;;3.60;3.35;;;-1.20;99.90;;;;;;5046399;28;20048;-38
2023/02/05 08:24:53;;;;;;;4.18;3.78;;;-1.10;99.90;;;;;;5047975;28;20505;-38
2023/02/05 08:27:21;;;;;;;5.35;4.15;;;-1.10;99.90;;;;;;5050750;28;20513;-38
2023/02/05 08:29:48;;;;;;;3.05;2.85;;;-0.90;99.90;;;;;;5044073;28;20041;-39
2023/02/05 08:32:16;;;;;;;6.10;3.85;;;-0.90;99.90;;;;;;5027641;28;20438;-39
2023/02/05 08:34:43;;;;;;;5.65;3.60;;;-0.80;99.90;;;;;;5048309;28;20061;-38
2023/02/05 08:37:11;;;;;;;3.33;3.05;;;-0.80;99.90;;;;;;5036435;28;20056;-41
2023/02/05 08:39:39;;;;;;;3.70;3.42;;;-0.70;99.90;;;;;;5048926;28;20079;-41
2023/02/05 08:42:06;;;;;;;4.75;3.25;;;-0.60;99.90;;;;;;5046111;28;20048;-40
2023/02/05 08:44:34;;;;;;;14.30;4.68;;;-0.40;99.90;;;;;;5049184;28;20063;-41
2023/02/05 08:47:01;;;;;;;4.25;3.85;;;-0.20;99.90;;;;;;5049591;28;20053;-39
2023/02/05 08:49:29;;;;;;;3.03;2.78;;;-0.10;99.90;;;;;;5046367;28;20522;-43
2023/02/05 08:51:57;;;;;;;3.35;3.05;;;0.10;99.90;;;;;;5047618;28;20087;-39
2023/02/05 08:54:24;;;;;;;4.47;3.15;;;0.20;99.90;;;;;;5040916;28;20056;-43
2023/02/05 08:56:52;;;;;;;4.95;2.53;;;0.20;99.90;;;;;;5050402;28;20049;-43
2023/02/05 08:59:20;;;;;;;4.43;3.25;;;0.30;99.90;;;;;;5048835;28;20453;-40
2023/02/05 09:01:47;;;;;;;3.08;2.70;;;0.40;99.90;;;;;;5049078;28;20079;-44
2023/02/05 09:04:18;;;;;;;2.58;2.38;;;0.50;99.90;;;;;;5045849;28;20525;-43
2023/02/05 09:06:46;;;;;;;2.33;2.20;;;0.50;99.90;;;;;;5050276;28;20379;-43
2023/02/05 09:09:14;;;;;;;2.10;2.00;;;0.40;99.90;;;;;;5045288;28;20041;-41
2023/02/05 09:11:44;;;;;;;3.10;2.80;;;0.40;99.90;;;;;;5049524;28;20045;-42
2023/02/05 09:14:12;;;;;;;4.90;3.42;;;0.50;99.90;;;;;;5042272;28;20509;-43
2023/02/05 09:16:40;;;;;;;3.53;3.10;;;0.60;99.90;;;;;;5048207;28;20045;-42
2023/02/05 09:19:07;;;;;;;3.28;3.08;;;0.70;99.90;;;;;;5047430;28;20516;-41
2023/02/05 09:21:35;;;;;;;2.65;2.45;;;0.80;99.90;;;;;;5049073;28;20063;-41
2023/02/05 09:24:03;;;;;;;3.50;3.20;;;0.90;99.90;;;;;;5045235;28;20099;-42
2023/02/05 09:26:30;;;;;;;2.35;2.17;;;1.10;99.90;;;;;;5047969;28;20056;-40
2023/02/05 09:28:58;;;;;;;17.58;3.72;;;1.10;99.90;;;;;;5048315;28;20220;-39
2023/02/05 09:31:25;;;;;;;3.08;2.88;;;1.20;99.90;;;;;;5050813;28;20052;-42
2023/02/05 09:33:54;;;;;;;2.72;2.53;;;1.30;99.90;;;;;;5048184;28;20464;-42
2023/02/05 09:36:23;;;;;;;7.55;2.78;;;1.40;99.90;;;;;;5046455;28;20049;-44
2023/02/05 09:38:52;;;;;;;7.20;4.22;;;1.70;99.90;;;;;;5044676;28;20048;-39
2023/02/05 09:41:56;;;;;;;8.63;3.97;;;2.00;99.90;;;;;;5046969;28;20387;-38
2023/02/05 09:44:42;;;;;;;4.90;3.60;;;2.60;99.90;;;;;;5046491;28;20428;-38
2023/02/05 09:47:18;;;;;;;4.45;3.05;;;3.40;99.90;;;;;;5049066;28;20067;-36
2023/02/05 09:50:05;;;;;;;2.80;2.35;;;4.40;99.90;;;;;;5045137;28;20045;-36
2023/02/05 09:52:37;;;;;;;3.20;2.90;;;5.70;99.90;;;;;;5040497;28;20046;-35
2023/02/05 09:55:36;;;;;;;3.28;2.97;;;6.30;99.90;;;;;;5045586;28;20049;-35
2023/02/05 09:58:20;;;;;;;7.05;3.55;;;5.00;99.90;;;;;;5046045;28;20504;-35
2023/02/05 10:00:55;;;;;;;4.22;3.92;;;4.10;99.90;;;;;;5046927;28;20045;-35
2023/02/05 10:03:56;;;;;;;3.60;3.30;;;3.20;99.90;;;;;;5041290;28;20059;-34
2023/02/05 10:07:04;;;;;;;3.97;3.08;;;2.80;99.90;;;;;;4992125;28;20049;-34
2023/02/05 10:09:42;;;;;;;4.78;3.85;;;2.60;99.90;;;;;;5042861;28;20045;-34
2023/02/05 10:12:30;;;;;;;3.20;2.90;;;2.60;99.90;;;;;;5045485;28;20460;-34
2023/02/05 10:15:18;;;;;;;2.47;2.28;;;2.60;99.90;;;;;;5045618;28;20048;-34
2023/02/05 10:17:55;;;;;;;4.82;3.90;;;2.70;99.90;;;;;;5045085;28;20397;-33
2023/02/05 10:21:07;;;;;;;6.30;5.07;;;2.70;99.90;;;;;;5045686;28;20060;-34
2023/02/05 10:23:53;;;;;;;2.88;2.67;;;2.70;99.90;;;;;;5046866;28;20289;-35
2023/02/05 10:26:26;;;;;;;3.33;2.92;;;2.70;99.90;;;;;;5046153;28;20049;-34
2023/02/05 10:29:02;;;;;;;2.45;2.10;;;2.70;99.90;;;;;;5050708;28;20048;-34
2023/02/05 10:31:43;;;;;;;4.95;3.40;;;2.80;99.90;;;;;;5045882;28;20045;-34
2023/02/05 10:34:35;;;;;;;3.80;3.50;;;2.80;99.90;;;;;;5045520;28;20056;-34
2023/02/05 10:37:09;;;;;;;7.00;3.63;;;2.90;99.90;;;;;;5046111;28;20045;-34
2023/02/05 10:39:36;;;;;;;4.40;3.97;;;3.00;99.90;;;;;;5039918;28;20053;-34
2023/02/05 10:42:24;;;;;;;3.10;2.80;;;3.00;99.90;;;;;;5045514;28;20053;-35
2023/02/05 10:45:05;;;;;;;4.18;3.45;;;2.90;99.90;;;;;;5044775;28;20056;-34
2023/02/05 10:47:35;;;;;;;4.65;3.63;;;2.90;99.90;;;;;;5041842;28;20057;-35
2023/02/05 10:50:36;;;;;;;4.70;3.28;;;2.90;99.90;;;;;;5046845;28;20052;-34
2023/02/05 10:53:04;;;;;;;5.20;3.97;;;3.00;99.90;;;;;;5001564;28;20044;-34
2023/02/05 10:55:31;;;;;;;4.50;3.40;;;3.20;99.90;;;;;;5046698;28;20548;-34
2023/02/05 10:58:11;;;;;;;3.38;3.05;;;3.30;99.90;;;;;;5050766;28;20540;-34
2023/02/05 11:00:39;;;;;;;3.25;3.00;;;3.40;99.90;;;;;;5052266;28;20045;-34
2023/02/05 11:03:15;;;;;;;3.47;3.28;;;3.50;99.90;;;;;;5049730;28;20053;-34
2023/02/05 11:05:45;;;;;;;4.68;4.05;;;3.60;99.90;;;;;;5050209;28;20076;-34
2023/02/05 11:08:36;;;;;;;5.53;3.50;;;3.60;99.90;;;;;;5043391;28;20509;-34
2023/02/05 11:11:05;;;;;;;4.03;3.72;;;3.60;99.90;;;;;;5043666;28;20056;-34
2023/02/05 11:13:38;;;;;;;5.45;4.97;;;3.50;99.90;;;;;;5049122;28;20060;-34
2023/02/05 11:16:07;;;;;;;4.07;3.67;;;3.60;99.90;;;;;;5048855;28;20056;-34
2023/02/05 11:18:39;;;;;;;4.53;3.53;;;3.60;99.90;;;;;;5052556;28;20492;-34
2023/02/05 11:21:10;;;;;;;4.40;4.10;;;3.40;99.90;;;;;;5050439;28;20045;-34
2023/02/05 11:23:39;;;;;;;4.95;4.55;;;3.50;99.90;;;;;;5051934;28;20045;-34
2023/02/05 11:26:27;;;;;;;5.45;4.15;;;3.80;99.90;;;;;;5047387;28;20037;-35
2023/02/05 11:28:55;;;;;;;4.68;4.28;;;3.90;99.90;;;;;;5045262;28;20509;-34
2023/02/05 11:31:33;;;;;;;5.30;4.72;;;3.60;99.90;;;;;;5052216;28;20060;-34
2023/02/05 11:34:07;;;;;;;5.55;5.15;;;3.50;99.90;;;;;;5047319;28;20068;-34
2023/02/05 11:36:53;;;;;;;6.00;4.57;;;3.60;99.90;;;;;;5049536;28;20060;-35
2023/02/05 11:39:23;;;;;;;4.57;4.10;;;3.70;99.90;;;;;;5048163;28;20049;-34
2023/02/05 11:41:55;;;;;;;6.93;3.70;;;3.80;99.90;;;;;;5049018;28;20049;-35
2023/02/05 11:44:23;;;;;;;;;;;3.80;99.90;;;;;;5049466;28;20037;-35
2023/02/05 11:46:56;;;;;;;4.28;3.45;;;3.90;99.90;;;;;;5047936;28;19924;-35
2023/02/05 11:49:31;;;;;;;4.32;3.92;;;4.00;99.90;;;;;;5047689;28;20509;-34
2023/02/05 11:52:01;;;;;;;7.97;5.85;;;3.90;99.90;;;;;;5048909;28;20056;-34
2023/02/05 11:54:32;;;;;;;8.43;5.40;;;3.90;99.90;;;;;;5045726;28;20048;-34
2023/02/05 11:57:13;;;;;;;4.47;4.07;;;3.90;99.90;;;;;;5050320;28;20041;-34
2023/02/05 11:59:43;;;;;;;6.47;3.47;;;3.80;99.90;;;;;;5051390;28;20064;-35
2023/02/05 12:02:43;;;;;;;4.78;3.28;;;3.90;99.90;;;;;;5042772;28;20060;-34
2023/02/05 12:05:17;;;;;;;8.13;3.47;;;4.00;99.90;;;;;;5006504;28;20040;-34
2023/02/05 12:08:00;;;;;;;3.00;2.70;;;3.90;99.90;;;;;;5032080;28;20057;-34
2023/02/05 12:11:02;;;;;;;3.67;2.58;;;3.90;99.90;;;;;;5048177;28;20600;-35
2023/02/05 12:14:01;;;;;;;3.33;3.03;;;3.80;99.90;;;;;;5047045;28;20362;-34
2023/02/05 12:16:31;;;;;;;7.53;4.05;;;3.80;99.90;;;;;;5046370;28;20506;-35
2023/02/05 12:19:13;;;;;;;3.53;2.70;;;4.00;99.90;;;;;;5031343;28;20425;-35
2023/02/05 12:22:02;;;;;;;3.78;3.00;;;4.20;99.90;;;;;;5047150;28;20505;-35
2023/02/05 12:24:46;;;;;;;3.15;2.88;;;4.10;99.90;;;;;;5047059;28;20314;-34
2023/02/05 12:27:33;;;;;;;4.82;3.45;;;3.90;99.90;;;;;;5051398;28;20402;-34
2023/02/05 12:30:13;;;;;;;3.03;2.72;;;3.80;99.90;;;;;;5049784;28;20057;-35
2023/02/05 12:33:05;;;;;;;2.55;2.20;;;3.80;99.90;;;;;;5048225;28;20041;-34
2023/02/05 12:35:49;;;;;;;;;;;3.60;99.90;;;;;;5049453;28;20089;-35
2023/02/05 12:38:39;;;;;;;7.43;3.28;;;3.50;99.90;;;;;;5046585;28;19927;-34
2023/02/05 12:41:42;;;;;;;2.47;2.38;;;3.30;99.90;;;;;;5049680;28;20041;-34
2023/02/05 12:44:32;;;;;;;2.55;2.35;;;3.30;99.90;;;;;;5047602;28;20060;-35
2023/02/05 12:47:35;;;;;;;1.67;1.58;;;3.20;99.90;;;;;;5051144;28;20049;-34
2023/02/05 12:50:14;;;;;;;1.92;1.83;;;3.40;99.90;;;;;;5036294;28;20049;-35
2023/02/05 12:53:02;;;;;;;2.70;2.50;;;3.50;99.90;;;;;;5044604;28;20037;-34
2023/02/05 12:55:56;;;;;;;2.20;2.10;;;3.50;99.90;;;;;;5042161;28;20516;-34
2023/02/05 12:58:32;;;;;;;2.60;1.75;;;3.50;99.90;;;;;;5041380;28;20360;-34
2023/02/05 13:01:05;;;;;;;2.40;2.20;;;3.40;99.90;;;;;;5047673;28;20048;-35
2023/02/05 13:03:37;;;;;;;11.00;1.90;;;3.30;99.90;;;;;;5047230;28;20057;-34
2023/02/05 13:06:13;;;;;;;6.00;3.60;;;3.20;99.90;;;;;;5048305;28;20412;-34
2023/02/05 13:08:57;;;;;;;3.10;2.25;;;3.10;99.90;;;;;;5048904;28;20543;-34
2023/02/05 13:11:39;;;;;;;2.95;1.90;;;3.10;99.90;;;;;;5046808;28;20053;-34
2023/02/05 13:14:16;;;;;;;1.98;1.85;;;3.10;99.90;;;;;;5042125;28;20052;-34
2023/02/05 13:17:11;;;;;;;11.93;2.65;;;3.10;99.90;;;;;;5046837;28;20040;-34
2023/02/05 13:20:02;;;;;;;1.85;1.75;;;3.10;99.90;;;;;;5050608;28;20064;-35
2023/02/05 13:28:41;;;;;;;2.42;2.33;;;3.10;99.90;;;;;;5046878;28;20057;-34
2023/02/05 13:31:39;;;;;;;3.25;2.08;;;3.20;99.90;;;;;;5048896;28;20429;-34
2023/02/05 13:34:11;;;;;;;2.17;1.98;;;3.20;99.90;;;;;;5045560;28;20056;-35